sensor_id;sensor_type;location;lat;lon;timestamp;P1;durP1;ratioP1;P2;durP2;ratioP2
43413;SDS011;29013;49.676;8.606;2022-11-15T00:05:19;2.67;;;1.65;;
43413;SDS011;29013;49.676;8.606;2022-11-15T00:10:55;2.16;;;1.45;;
43413;SDS011;29013;49.676;8.606;2022-11-15T00:16:26;2.84;;;1.7;;
43413;SDS011;29013;49.676;8.606;2022-11-15T00:21:55;2.19;;;1.7;;
43413;SDS011;29013;49.676;8.606;2022-11-15T00:39:33;1.99;;;1.29;;
43413;SDS011;29013;49.676;8.606;2022-11-15T00:45:42;3.88;;;1.91;;
43413;SDS011;29013;49.676;8.606;2022-11-15T00:51:37;1.8;;;1.49;;
43413;SDS011;29013;49.676;8.606;2022-11-15T00:57:26;3.29;;;1.6;;
43413;SDS011;29013;49.676;8.606;2022-11-15T01:04:04;2.41;;;1.6;;
43413;SDS011;29013;49.676;8.606;2022-11-15T01:10:03;2.29;;;1.37;;
43413;SDS011;29013;49.676;8.606;2022-11-15T01:15:55;2.9;;;1.46;;
43413;SDS011;29013;49.676;8.606;2022-11-15T01:27:22;2.68;;;1.52;;
43413;SDS011;29013;49.676;8.606;2022-11-15T01:32:50;2.19;;;1.66;;
43413;SDS011;29013;49.676;8.606;2022-11-15T01:38:36;2.74;;;1.44;;
43413;SDS011;29013;49.676;8.606;2022-11-15T01:50:49;2.42;;;1.69;;
43413;SDS011;29013;49.676;8.606;2022-11-15T01:56:16;2.45;;;1.6;;
43413;SDS011;29013;49.676;8.606;2022-11-15T02:01:44;2.46;;;1.49;;
43413;SDS011;29013;49.676;8.606;2022-11-15T02:07:20;2.11;;;1.53;;
43413;SDS011;29013;49.676;8.606;2022-11-15T02:12:47;2.35;;;1.65;;
43413;SDS011;29013;49.676;8.606;2022-11-15T02:18:18;1.73;;;1.22;;
43413;SDS011;29013;49.676;8.606;2022-11-15T02:30:20;2.59;;;1.45;;
43413;SDS011;29013;49.676;8.606;2022-11-15T02:35:52;2.27;;;1.52;;
43413;SDS011;29013;49.676;8.606;2022-11-15T02:41:20;2.71;;;1.41;;
43413;SDS011;29013;49.676;8.606;2022-11-15T02:47:03;2.14;;;1.49;;
43413;SDS011;29013;49.676;8.606;2022-11-15T02:52:40;1.55;;;1.34;;
43413;SDS011;29013;49.676;8.606;2022-11-15T02:58:19;2.24;;;1.31;;
43413;SDS011;29013;49.676;8.606;2022-11-15T03:04:00;2.52;;;1.43;;
43413;SDS011;29013;49.676;8.606;2022-11-15T03:09:33;2.77;;;1.47;;
43413;SDS011;29013;49.676;8.606;2022-11-15T03:15:04;3.12;;;1.53;;
43413;SDS011;29013;49.676;8.606;2022-11-15T03:20:37;2.33;;;1.33;;
43413;SDS011;29013;49.676;8.606;2022-11-15T03:26:00;3.52;;;1.59;;
43413;SDS011;29013;49.676;8.606;2022-11-15T03:31:26;2.42;;;1.69;;
43413;SDS011;29013;49.676;8.606;2022-11-15T03:36:54;2.68;;;1.48;;
43413;SDS011;29013;49.676;8.606;2022-11-15T03:42:21;3.3;;;1.58;;
43413;SDS011;29013;49.676;8.606;2022-11-15T03:47:48;2.03;;;1.47;;
43413;SDS011;29013;49.676;8.606;2022-11-15T03:59:00;3.87;;;1.59;;
43413;SDS011;29013;49.676;8.606;2022-11-15T04:04:58;2.18;;;1.45;;
43413;SDS011;29013;49.676;8.606;2022-11-15T04:10:30;2.91;;;1.61;;
43413;SDS011;29013;49.676;8.606;2022-11-15T04:16:08;1.89;;;1.48;;
43413;SDS011;29013;49.676;8.606;2022-11-15T04:21:44;1.82;;;1.3;;
43413;SDS011;29013;49.676;8.606;2022-11-15T04:27:15;2.17;;;1.65;;
43413;SDS011;29013;49.676;8.606;2022-11-15T04:32:48;2.14;;;1.46;;
43413;SDS011;29013;49.676;8.606;2022-11-15T04:38:20;2.69;;;1.41;;
43413;SDS011;29013;49.676;8.606;2022-11-15T04:44:04;2.73;;;1.56;;
43413;SDS011;29013;49.676;8.606;2022-11-15T04:49:32;3.44;;;1.85;;
43413;SDS011;29013;49.676;8.606;2022-11-15T04:55:02;2.81;;;1.59;;
43413;SDS011;29013;49.676;8.606;2022-11-15T05:00:30;2.62;;;1.97;;
43413;SDS011;29013;49.676;8.606;2022-11-15T05:05:54;5.59;;;2.02;;
43413;SDS011;29013;49.676;8.606;2022-11-15T05:11:28;2.71;;;1.92;;
43413;SDS011;29013;49.676;8.606;2022-11-15T05:16:53;2.6;;;1.81;;
43413;SDS011;29013;49.676;8.606;2022-11-15T05:37:29;3.15;;;2.1;;
43413;SDS011;29013;49.676;8.606;2022-11-15T05:42:57;3.13;;;2.26;;
43413;SDS011;29013;49.676;8.606;2022-11-15T05:48:19;3.48;;;2.1;;
43413;SDS011;29013;49.676;8.606;2022-11-15T05:53:45;3.06;;;2.4;;
43413;SDS011;29013;49.676;8.606;2022-11-15T05:59:15;5.15;;;2.16;;
43413;SDS011;29013;49.676;8.606;2022-11-15T06:04:40;3.58;;;2.48;;
43413;SDS011;29013;49.676;8.606;2022-11-15T06:10:08;2.96;;;2.13;;
43413;SDS011;29013;49.676;8.606;2022-11-15T06:15:52;3.87;;;2.27;;
43413;SDS011;29013;49.676;8.606;2022-11-15T06:21:16;3.42;;;2.08;;
43413;SDS011;29013;49.676;8.606;2022-11-15T06:26:44;4.39;;;2.67;;
43413;SDS011;29013;49.676;8.606;2022-11-15T06:32:10;4.51;;;2.5;;
43413;SDS011;29013;49.676;8.606;2022-11-15T06:37:34;3.44;;;2.56;;
43413;SDS011;29013;49.676;8.606;2022-11-15T06:42:59;4.12;;;2.18;;
43413;SDS011;29013;49.676;8.606;2022-11-15T06:48:25;2.96;;;2.0;;
43413;SDS011;29013;49.676;8.606;2022-11-15T06:53:47;3.55;;;2.35;;
43413;SDS011;29013;49.676;8.606;2022-11-15T06:59:14;6.2;;;2.81;;
43413;SDS011;29013;49.676;8.606;2022-11-15T07:04:41;4.57;;;2.32;;
43413;SDS011;29013;49.676;8.606;2022-11-15T07:10:08;4.87;;;2.74;;
43413;SDS011;29013;49.676;8.606;2022-11-15T07:15:29;3.82;;;2.36;;
43413;SDS011;29013;49.676;8.606;2022-11-15T07:20:54;6.02;;;2.71;;
43413;SDS011;29013;49.676;8.606;2022-11-15T07:26:21;4.33;;;2.69;;
43413;SDS011;29013;49.676;8.606;2022-11-15T07:31:50;4.34;;;2.49;;
43413;SDS011;29013;49.676;8.606;2022-11-15T07:37:15;3.05;;;2.14;;
43413;SDS011;29013;49.676;8.606;2022-11-15T07:42:37;4.16;;;2.32;;
43413;SDS011;29013;49.676;8.606;2022-11-15T07:48:05;4.32;;;2.52;;
43413;SDS011;29013;49.676;8.606;2022-11-15T07:53:27;4.88;;;2.59;;
43413;SDS011;29013;49.676;8.606;2022-11-15T07:58:50;3.8;;;2.31;;
43413;SDS011;29013;49.676;8.606;2022-11-15T08:04:18;6.27;;;2.47;;
43413;SDS011;29013;49.676;8.606;2022-11-15T08:09:45;3.22;;;2.42;;
43413;SDS011;29013;49.676;8.606;2022-11-15T08:15:09;4.13;;;2.16;;
43413;SDS011;29013;49.676;8.606;2022-11-15T08:20:31;3.55;;;2.18;;
43413;SDS011;29013;49.676;8.606;2022-11-15T08:25:52;6.36;;;2.45;;
43413;SDS011;29013;49.676;8.606;2022-11-15T08:31:18;4.18;;;2.61;;
43413;SDS011;29013;49.676;8.606;2022-11-15T08:36:42;3.08;;;2.17;;
43413;SDS011;29013;49.676;8.606;2022-11-15T08:42:06;5.43;;;2.81;;
43413;SDS011;29013;49.676;8.606;2022-11-15T08:47:34;4.59;;;2.42;;
43413;SDS011;29013;49.676;8.606;2022-11-15T08:53:05;4.0;;;2.23;;
43413;SDS011;29013;49.676;8.606;2022-11-15T08:58:30;3.46;;;2.61;;
43413;SDS011;29013;49.676;8.606;2022-11-15T09:03:52;3.34;;;2.36;;
43413;SDS011;29013;49.676;8.606;2022-11-15T09:09:17;3.26;;;2.15;;
43413;SDS011;29013;49.676;8.606;2022-11-15T09:14:45;5.97;;;2.52;;
43413;SDS011;29013;49.676;8.606;2022-11-15T09:20:12;4.55;;;2.6;;
43413;SDS011;29013;49.676;8.606;2022-11-15T09:25:37;5.12;;;2.44;;
43413;SDS011;29013;49.676;8.606;2022-11-15T09:31:05;4.44;;;2.35;;
43413;SDS011;29013;49.676;8.606;2022-11-15T09:36:31;5.59;;;2.28;;
43413;SDS011;29013;49.676;8.606;2022-11-15T09:41:57;5.46;;;2.41;;
43413;SDS011;29013;49.676;8.606;2022-11-15T09:47:38;3.03;;;2.53;;
43413;SDS011;29013;49.676;8.606;2022-11-15T09:53:04;4.16;;;2.6;;
43413;SDS011;29013;49.676;8.606;2022-11-15T09:58:33;4.82;;;2.71;;
43413;SDS011;29013;49.676;8.606;2022-11-15T10:03:53;2.96;;;2.4;;
43413;SDS011;29013;49.676;8.606;2022-11-15T10:09:20;3.34;;;2.26;;
43413;SDS011;29013;49.676;8.606;2022-11-15T10:14:43;3.76;;;2.42;;
43413;SDS011;29013;49.676;8.606;2022-11-15T10:20:12;3.48;;;2.33;;
43413;SDS011;29013;49.676;8.606;2022-11-15T10:25:32;4.14;;;1.83;;
43413;SDS011;29013;49.676;8.606;2022-11-15T10:30:59;2.62;;;1.97;;
43413;SDS011;29013;49.676;8.606;2022-11-15T10:36:24;2.18;;;1.47;;
43413;SDS011;29013;49.676;8.606;2022-11-15T10:41:51;1.98;;;1.37;;
43413;SDS011;29013;49.676;8.606;2022-11-15T10:47:23;3.56;;;1.62;;
43413;SDS011;29013;49.676;8.606;2022-11-15T10:52:50;2.51;;;1.38;;
43413;SDS011;29013;49.676;8.606;2022-11-15T10:58:22;2.49;;;1.58;;
43413;SDS011;29013;49.676;8.606;2022-11-15T11:04:00;1.94;;;1.47;;
43413;SDS011;29013;49.676;8.606;2022-11-15T11:09:27;3.2;;;1.75;;
43413;SDS011;29013;49.676;8.606;2022-11-15T11:14:56;4.05;;;1.81;;
43413;SDS011;29013;49.676;8.606;2022-11-15T11:20:25;2.55;;;1.55;;
43413;SDS011;29013;49.676;8.606;2022-11-15T11:25:48;2.06;;;1.6;;
43413;SDS011;29013;49.676;8.606;2022-11-15T11:31:16;2.3;;;1.42;;
43413;SDS011;29013;49.676;8.606;2022-11-15T11:36:39;3.34;;;1.3;;
43413;SDS011;29013;49.676;8.606;2022-11-15T11:42:03;2.08;;;1.22;;
43413;SDS011;29013;49.676;8.606;2022-11-15T11:47:30;1.92;;;1.21;;
43413;SDS011;29013;49.676;8.606;2022-11-15T11:52:58;1.05;;;1.01;;
43413;SDS011;29013;49.676;8.606;2022-11-15T11:58:26;0.99;;;0.81;;
43413;SDS011;29013;49.676;8.606;2022-11-15T12:03:52;1.95;;;1.18;;
43413;SDS011;29013;49.676;8.606;2022-11-15T12:09:19;2.67;;;1.25;;
43413;SDS011;29013;49.676;8.606;2022-11-15T12:14:45;1.54;;;1.01;;
43413;SDS011;29013;49.676;8.606;2022-11-15T12:20:16;1.65;;;1.05;;
43413;SDS011;29013;49.676;8.606;2022-11-15T12:25:43;2.12;;;0.98;;
43413;SDS011;29013;49.676;8.606;2022-11-15T12:31:15;1.51;;;1.0;;
43413;SDS011;29013;49.676;8.606;2022-11-15T12:36:36;1.59;;;1.08;;
43413;SDS011;29013;49.676;8.606;2022-11-15T12:47:48;2.02;;;0.9;;
43413;SDS011;29013;49.676;8.606;2022-11-15T12:58:53;1.32;;;0.79;;
43413;SDS011;29013;49.676;8.606;2022-11-15T13:04:23;3.01;;;0.99;;
43413;SDS011;29013;49.676;8.606;2022-11-15T13:09:54;1.38;;;0.99;;
43413;SDS011;29013;49.676;8.606;2022-11-15T13:21:22;1.1;;;0.95;;
43413;SDS011;29013;49.676;8.606;2022-11-15T13:26:47;1.74;;;1.28;;
43413;SDS011;29013;49.676;8.606;2022-11-15T13:32:14;1.94;;;1.1;;
43413;SDS011;29013;49.676;8.606;2022-11-15T13:37:43;2.33;;;1.17;;
43413;SDS011;29013;49.676;8.606;2022-11-15T13:43:17;2.54;;;1.17;;
43413;SDS011;29013;49.676;8.606;2022-11-15T13:48:43;2.66;;;1.26;;
43413;SDS011;29013;49.676;8.606;2022-11-15T13:54:14;1.17;;;0.82;;
43413;SDS011;29013;49.676;8.606;2022-11-15T13:59:45;1.58;;;1.11;;
43413;SDS011;29013;49.676;8.606;2022-11-15T14:05:12;1.92;;;1.03;;
43413;SDS011;29013;49.676;8.606;2022-11-15T14:10:38;3.24;;;1.1;;
43413;SDS011;29013;49.676;8.606;2022-11-15T14:16:19;2.03;;;1.21;;
43413;SDS011;29013;49.676;8.606;2022-11-15T14:27:29;1.74;;;1.01;;
43413;SDS011;29013;49.676;8.606;2022-11-15T14:32:55;1.79;;;1.13;;
43413;SDS011;29013;49.676;8.606;2022-11-15T14:38:18;1.67;;;1.11;;
43413;SDS011;29013;49.676;8.606;2022-11-15T14:43:44;2.87;;;1.19;;
43413;SDS011;29013;49.676;8.606;2022-11-15T14:49:10;2.47;;;1.48;;
43413;SDS011;29013;49.676;8.606;2022-11-15T14:54:32;2.71;;;1.65;;
43413;SDS011;29013;49.676;8.606;2022-11-15T14:59:59;4.28;;;1.6;;
43413;SDS011;29013;49.676;8.606;2022-11-15T15:05:24;4.12;;;1.69;;
43413;SDS011;29013;49.676;8.606;2022-11-15T15:10:45;2.15;;;1.43;;
43413;SDS011;29013;49.676;8.606;2022-11-15T15:16:10;2.58;;;1.91;;
43413;SDS011;29013;49.676;8.606;2022-11-15T15:21:35;3.72;;;2.93;;
43413;SDS011;29013;49.676;8.606;2022-11-15T15:27:02;5.51;;;3.24;;
43413;SDS011;29013;49.676;8.606;2022-11-15T15:32:29;3.06;;;1.58;;
43413;SDS011;29013;49.676;8.606;2022-11-15T15:37:55;4.4;;;1.99;;
43413;SDS011;29013;49.676;8.606;2022-11-15T15:43:22;4.31;;;1.73;;
43413;SDS011;29013;49.676;8.606;2022-11-15T15:48:45;2.82;;;1.26;;
43413;SDS011;29013;49.676;8.606;2022-11-15T15:54:06;2.19;;;1.19;;
43413;SDS011;29013;49.676;8.606;2022-11-15T15:59:28;3.03;;;1.08;;
43413;SDS011;29013;49.676;8.606;2022-11-15T16:04:50;4.0;;;1.32;;
43413;SDS011;29013;49.676;8.606;2022-11-15T16:10:16;2.03;;;1.2;;
43413;SDS011;29013;49.676;8.606;2022-11-15T16:15:42;2.21;;;1.23;;
43413;SDS011;29013;49.676;8.606;2022-11-15T16:21:08;3.82;;;1.69;;
43413;SDS011;29013;49.676;8.606;2022-11-15T16:26:35;3.04;;;1.43;;
43413;SDS011;29013;49.676;8.606;2022-11-15T16:32:01;2.7;;;1.42;;
43413;SDS011;29013;49.676;8.606;2022-11-15T16:37:28;1.6;;;1.22;;
43413;SDS011;29013;49.676;8.606;2022-11-15T16:42:55;1.81;;;0.88;;
43413;SDS011;29013;49.676;8.606;2022-11-15T16:48:21;0.61;;;0.59;;
43413;SDS011;29013;49.676;8.606;2022-11-15T16:53:45;3.42;;;1.12;;
43413;SDS011;29013;49.676;8.606;2022-11-15T16:59:10;1.21;;;1.0;;
43413;SDS011;29013;49.676;8.606;2022-11-15T17:04:35;1.82;;;1.03;;
43413;SDS011;29013;49.676;8.606;2022-11-15T17:10:02;1.77;;;1.07;;
43413;SDS011;29013;49.676;8.606;2022-11-15T17:15:29;1.89;;;1.0;;
43413;SDS011;29013;49.676;8.606;2022-11-15T17:20:52;1.87;;;1.12;;
43413;SDS011;29013;49.676;8.606;2022-11-15T17:26:19;1.1;;;1.0;;
43413;SDS011;29013;49.676;8.606;2022-11-15T17:31:43;1.45;;;0.85;;
43413;SDS011;29013;49.676;8.606;2022-11-15T17:37:10;1.1;;;0.82;;
43413;SDS011;29013;49.676;8.606;2022-11-15T17:42:35;1.99;;;0.94;;
43413;SDS011;29013;49.676;8.606;2022-11-15T17:48:03;2.33;;;0.87;;
43413;SDS011;29013;49.676;8.606;2022-11-15T17:53:32;1.43;;;0.86;;
43413;SDS011;29013;49.676;8.606;2022-11-15T17:58:58;0.96;;;0.67;;
43413;SDS011;29013;49.676;8.606;2022-11-15T18:04:24;0.93;;;0.67;;
43413;SDS011;29013;49.676;8.606;2022-11-15T18:09:47;2.63;;;1.06;;
43413;SDS011;29013;49.676;8.606;2022-11-15T18:15:14;1.45;;;1.1;;
43413;SDS011;29013;49.676;8.606;2022-11-15T18:20:39;1.52;;;0.8;;
43413;SDS011;29013;49.676;8.606;2022-11-15T18:26:06;1.91;;;1.15;;
43413;SDS011;29013;49.676;8.606;2022-11-15T18:31:29;1.53;;;1.09;;
43413;SDS011;29013;49.676;8.606;2022-11-15T18:36:55;2.39;;;1.02;;
43413;SDS011;29013;49.676;8.606;2022-11-15T18:42:21;1.69;;;1.19;;
43413;SDS011;29013;49.676;8.606;2022-11-15T18:47:48;1.67;;;1.23;;
43413;SDS011;29013;49.676;8.606;2022-11-15T18:53:16;2.41;;;1.39;;
43413;SDS011;29013;49.676;8.606;2022-11-15T18:58:39;2.17;;;1.18;;
43413;SDS011;29013;49.676;8.606;2022-11-15T19:04:04;1.68;;;1.2;;
43413;SDS011;29013;49.676;8.606;2022-11-15T19:09:24;1.99;;;1.32;;
43413;SDS011;29013;49.676;8.606;2022-11-15T19:14:45;2.3;;;1.33;;
43413;SDS011;29013;49.676;8.606;2022-11-15T19:20:12;2.08;;;1.08;;
43413;SDS011;29013;49.676;8.606;2022-11-15T19:25:39;1.37;;;1.1;;
43413;SDS011;29013;49.676;8.606;2022-11-15T19:31:04;2.09;;;1.27;;
43413;SDS011;29013;49.676;8.606;2022-11-15T19:36:32;2.13;;;1.1;;
43413;SDS011;29013;49.676;8.606;2022-11-15T19:41:54;1.54;;;1.26;;
43413;SDS011;29013;49.676;8.606;2022-11-15T19:47:18;2.35;;;1.4;;
43413;SDS011;29013;49.676;8.606;2022-11-15T19:52:43;2.14;;;1.42;;
43413;SDS011;29013;49.676;8.606;2022-11-15T19:58:05;3.22;;;1.53;;
43413;SDS011;29013;49.676;8.606;2022-11-15T20:03:32;3.8;;;1.46;;
43413;SDS011;29013;49.676;8.606;2022-11-15T20:08:56;3.06;;;1.54;;
43413;SDS011;29013;49.676;8.606;2022-11-15T20:14:20;2.93;;;1.49;;
43413;SDS011;29013;49.676;8.606;2022-11-15T20:19:47;2.73;;;2.08;;
43413;SDS011;29013;49.676;8.606;2022-11-15T20:25:14;6.0;;;2.85;;
43413;SDS011;29013;49.676;8.606;2022-11-15T20:30:38;2.92;;;1.76;;
43413;SDS011;29013;49.676;8.606;2022-11-15T20:36:05;3.84;;;1.8;;
43413;SDS011;29013;49.676;8.606;2022-11-15T20:41:26;2.29;;;1.6;;
43413;SDS011;29013;49.676;8.606;2022-11-15T20:46:51;2.13;;;1.54;;
43413;SDS011;29013;49.676;8.606;2022-11-15T20:52:18;1.91;;;1.45;;
43413;SDS011;29013;49.676;8.606;2022-11-15T20:57:44;3.17;;;1.56;;
43413;SDS011;29013;49.676;8.606;2022-11-15T21:03:12;2.81;;;2.27;;
43413;SDS011;29013;49.676;8.606;2022-11-15T21:08:38;4.45;;;2.61;;
43413;SDS011;29013;49.676;8.606;2022-11-15T21:14:04;2.44;;;1.97;;
43413;SDS011;29013;49.676;8.606;2022-11-15T21:19:31;3.57;;;2.18;;
43413;SDS011;29013;49.676;8.606;2022-11-15T21:24:57;3.68;;;2.11;;
43413;SDS011;29013;49.676;8.606;2022-11-15T21:30:24;3.91;;;2.7;;
43413;SDS011;29013;49.676;8.606;2022-11-15T21:35:52;3.58;;;2.63;;
43413;SDS011;29013;49.676;8.606;2022-11-15T21:41:19;3.76;;;2.39;;
43413;SDS011;29013;49.676;8.606;2022-11-15T21:46:57;3.75;;;2.44;;
43413;SDS011;29013;49.676;8.606;2022-11-15T21:52:23;3.32;;;2.26;;
43413;SDS011;29013;49.676;8.606;2022-11-15T21:57:48;3.14;;;2.15;;
43413;SDS011;29013;49.676;8.606;2022-11-15T22:03:14;4.03;;;2.72;;
43413;SDS011;29013;49.676;8.606;2022-11-15T22:08:40;4.91;;;3.37;;
43413;SDS011;29013;49.676;8.606;2022-11-15T22:14:07;3.82;;;3.05;;
43413;SDS011;29013;49.676;8.606;2022-11-15T22:19:34;4.58;;;3.09;;
43413;SDS011;29013;49.676;8.606;2022-11-15T22:24:55;4.34;;;3.18;;
43413;SDS011;29013;49.676;8.606;2022-11-15T22:30:18;5.24;;;3.19;;
43413;SDS011;29013;49.676;8.606;2022-11-15T22:35:41;4.82;;;3.2;;
43413;SDS011;29013;49.676;8.606;2022-11-15T22:41:06;5.4;;;3.46;;
43413;SDS011;29013;49.676;8.606;2022-11-15T22:46:32;4.77;;;3.42;;
43413;SDS011;29013;49.676;8.606;2022-11-15T22:51:56;4.9;;;3.18;;
43413;SDS011;29013;49.676;8.606;2022-11-15T22:57:22;5.02;;;3.58;;
43413;SDS011;29013;49.676;8.606;2022-11-15T23:02:47;5.16;;;3.36;;
43413;SDS011;29013;49.676;8.606;2022-11-15T23:08:13;5.25;;;3.01;;
43413;SDS011;29013;49.676;8.606;2022-11-15T23:13:39;5.34;;;3.14;;
43413;SDS011;29013;49.676;8.606;2022-11-15T23:19:07;4.03;;;2.76;;
43413;SDS011;29013;49.676;8.606;2022-11-15T23:24:34;4.69;;;2.94;;
43413;SDS011;29013;49.676;8.606;2022-11-15T23:29:57;4.03;;;2.69;;
43413;SDS011;29013;49.676;8.606;2022-11-15T23:35:21;3.37;;;2.75;;
43413;SDS011;29013;49.676;8.606;2022-11-15T23:40:50;3.34;;;2.58;;
43413;SDS011;29013;49.676;8.606;2022-11-15T23:46:14;2.66;;;2.22;;
43413;SDS011;29013;49.676;8.606;2022-11-15T23:51:42;3.63;;;2.49;;
43413;SDS011;29013;49.676;8.606;2022-11-15T23:57:10;2.91;;;2.21;;
